Startpagina
METAR-TAF:

METAR-TAF

Vliegvelden :

Boedapest, Hongarije

Luchthaven van Boedapest

breedte: 47-26N, lengte: 019-16E, hoogte: 151 m

Actueel weer

Dit bericht is 29 minuten geleden gemaakt, om 08:00 UTC
Wind 4 kt uit het zuidoosten, variërend tussen het oosten en het zuidzuidwesten
Temperatuur 21°C
Vochtigheid 46%
Druk 1016 hPa
Zicht 10 km of meer
geen wolken onder 1500 m en geen cumulonimbus

METAR: LHBP 220800Z 13004KT 090V200 CAVOK 21/09 Q1016 NOSIG

Tijdstip: 10:29 (08:29 UTC)

Verwachting

Dit bericht is 3 uur en het 14 minuten geleden gemaakt, om 05:15 UTC
Verwachting geldig van 22 om 06 UTC tot 23 om 06 UTC
Wind 3 kt uit variabele richting
Zicht 10 km of meer
geen wolken onder 1500 m en geen cumulonimbus
Wijzigt naar
van 22 om 10 UTC tot 22 om 12 UTC
Wind 6 kt uit het zuidwesten
Wijzigt naar
van 22 om 16 UTC tot 22 om 18 UTC
Wind 3 kt uit variabele richting

TAF: LHBP 220515Z 2206/2306 VRB03KT CAVOK BECMG 2210/2212 23006KT BECMG 2216/2218 VRB03KT

Waarnemingen en weersverwachtingen van meer dan 4000 vliegvelden (METAR en TAF).

De beschikbare stations zijn de gele en rode punten op de kaart.

Ga met uw muis naar het station om de naam te zien.

Klik dan om waarnemingen en weersverwachtingen te zien.

kaart wijzigen: klik op de groene knoppen met een zwart kruis om in te zoomen, op de groene knop met een streepje om uit te zoomen of op de groene pijlen voor aangrenzende kaarten.


METAR-TAF: